createdAt,value
2019-03-29T00:00:48.937Z,5.60
2019-03-29T00:03:21.053Z,5.70
2019-03-29T00:05:51.855Z,5.60
2019-03-29T00:08:22.637Z,5.60
2019-03-29T00:10:53.509Z,5.70
2019-03-29T00:13:24.365Z,5.60
2019-03-29T00:15:55.174Z,5.60
2019-03-29T00:18:25.981Z,5.60
2019-03-29T00:20:56.793Z,5.60
2019-03-29T00:23:27.624Z,5.70
2019-03-29T00:25:59.089Z,5.60
2019-03-29T00:28:30.394Z,5.60
2019-03-29T00:31:01.204Z,5.40
2019-03-29T00:33:32.004Z,5.40
2019-03-29T00:36:02.826Z,5.40
2019-03-29T00:38:33.621Z,5.50
2019-03-29T00:41:04.521Z,5.40
2019-03-29T00:43:35.317Z,5.30
2019-03-29T00:46:06.133Z,5.20
2019-03-29T00:48:37.118Z,5.10
2019-03-29T00:51:08.005Z,5.20
2019-03-29T00:53:38.805Z,5.20
2019-03-29T00:56:09.669Z,5.10
2019-03-29T00:58:40.477Z,5.10
2019-03-29T01:01:11.429Z,5.10
2019-03-29T01:03:42.242Z,5.10
2019-03-29T01:06:13.303Z,5.10
2019-03-29T01:08:44.089Z,5.10
2019-03-29T01:11:14.934Z,5.00
2019-03-29T01:13:45.781Z,5.00
2019-03-29T01:16:16.695Z,5.10
2019-03-29T01:18:47.582Z,5.10
2019-03-29T01:21:18.525Z,5.00
2019-03-29T01:23:50.011Z,5.00
2019-03-29T01:26:20.853Z,5.00
2019-03-29T01:28:51.667Z,5.00
2019-03-29T01:31:22.729Z,5.00
2019-03-29T01:33:53.545Z,5.00
2019-03-29T01:36:24.445Z,5.00
2019-03-29T01:38:55.337Z,5.00
2019-03-29T01:41:26.934Z,5.00
2019-03-29T01:43:57.999Z,5.00
2019-03-29T01:46:28.789Z,5.10
2019-03-29T01:48:59.679Z,5.10
2019-03-29T01:51:30.578Z,5.10
2019-03-29T01:54:01.398Z,5.10
2019-03-29T01:56:32.193Z,5.20
2019-03-29T01:59:03.013Z,5.10
2019-03-29T02:01:33.845Z,5.00
2019-03-29T02:04:05.964Z,4.80
2019-03-29T02:06:37.301Z,4.70
2019-03-29T02:09:08.210Z,4.60
2019-03-29T02:11:39.097Z,4.60
2019-03-29T02:14:10.042Z,4.60
2019-03-29T02:16:40.861Z,4.60
2019-03-29T02:19:11.822Z,4.70
2019-03-29T02:21:43.054Z,4.70
2019-03-29T02:24:14.366Z,4.60
2019-03-29T02:26:45.174Z,4.60
2019-03-29T02:29:15.973Z,4.60
2019-03-29T02:31:46.766Z,4.70
2019-03-29T02:34:17.653Z,4.70
2019-03-29T02:36:48.649Z,4.70
2019-03-29T02:39:19.522Z,4.70
2019-03-29T02:41:50.318Z,4.60
2019-03-29T02:44:21.142Z,4.50
2019-03-29T02:46:53.570Z,4.50
2019-03-29T02:49:24.566Z,4.50
2019-03-29T02:51:55.392Z,4.50
2019-03-29T02:54:26.195Z,4.50
2019-03-29T02:56:57.270Z,4.40
2019-03-29T02:59:28.105Z,4.40
2019-03-29T03:01:59.011Z,4.40
2019-03-29T03:04:29.916Z,4.40
2019-03-29T03:07:02.214Z,4.50
2019-03-29T03:09:33.103Z,4.50
2019-03-29T03:12:05.065Z,4.40
2019-03-29T03:14:35.843Z,4.40
2019-03-29T03:17:06.654Z,4.40
2019-03-29T03:19:37.771Z,4.30
2019-03-29T03:22:08.823Z,4.20
2019-03-29T03:24:39.751Z,4.10
2019-03-29T03:27:10.602Z,4.00
2019-03-29T03:29:41.672Z,4.00
2019-03-29T03:32:12.487Z,4.10
2019-03-29T03:34:43.314Z,4.10
2019-03-29T03:37:14.339Z,4.20
2019-03-29T03:39:45.149Z,4.20
2019-03-29T03:42:16.166Z,4.20
2019-03-29T03:44:47.270Z,4.10
2019-03-29T03:47:18.282Z,4.10
2019-03-29T03:49:49.156Z,4.00
2019-03-29T03:52:20.158Z,4.00
2019-03-29T03:54:51.089Z,4.10
2019-03-29T03:57:22.160Z,4.10
2019-03-29T03:59:55.254Z,4.00
2019-03-29T04:02:26.178Z,4.00
2019-03-29T04:04:56.987Z,3.90
2019-03-29T04:07:27.787Z,3.90
2019-03-29T04:09:58.667Z,4.00
2019-03-29T04:12:29.447Z,4.00
2019-03-29T04:15:00.422Z,4.10
2019-03-29T04:17:34.401Z,4.10
2019-03-29T04:20:05.422Z,3.90
2019-03-29T04:22:36.419Z,4.00
2019-03-29T04:25:07.555Z,4.10
2019-03-29T04:27:38.381Z,4.10
2019-03-29T04:30:10.368Z,4.10
2019-03-29T04:32:41.243Z,4.10
2019-03-29T04:35:12.040Z,4.20
2019-03-29T04:37:42.865Z,4.10
2019-03-29T04:40:13.754Z,4.10
2019-03-29T04:42:44.562Z,4.10
2019-03-29T04:45:15.466Z,4.10
2019-03-29T04:47:46.306Z,4.10
2019-03-29T04:50:17.186Z,4.10
2019-03-29T04:52:48.090Z,3.90
2019-03-29T04:55:19.854Z,3.90
2019-03-29T04:57:50.735Z,3.90
2019-03-29T05:00:21.530Z,4.00
2019-03-29T05:02:52.407Z,4.00
2019-03-29T05:05:23.370Z,3.80
2019-03-29T05:07:54.174Z,3.90
2019-03-29T05:10:25.110Z,3.90
2019-03-29T05:12:59.608Z,3.90
2019-03-29T05:15:30.090Z,3.80
2019-03-29T05:18:00.954Z,3.90
2019-03-29T05:20:31.911Z,3.80
2019-03-29T05:23:03.163Z,3.70
2019-03-29T05:25:34.498Z,3.70
2019-03-29T05:28:05.650Z,3.70
2019-03-29T05:30:36.450Z,3.70
2019-03-29T05:33:07.346Z,3.70
2019-03-29T05:35:38.159Z,3.60
2019-03-29T05:38:09.069Z,3.70
2019-03-29T05:40:39.950Z,3.60
2019-03-29T05:43:10.847Z,3.70
2019-03-29T05:45:41.652Z,3.80
2019-03-29T05:48:12.519Z,4.80
2019-03-29T05:50:43.326Z,3.90
2019-03-29T05:53:14.242Z,3.90
2019-03-29T05:55:48.208Z,3.90
2019-03-29T05:58:17.639Z,3.80
2019-03-29T06:00:48.431Z,3.90
2019-03-29T06:03:19.249Z,4.00
2019-03-29T06:05:50.030Z,4.00
2019-03-29T06:08:20.835Z,4.10
2019-03-29T06:10:51.630Z,4.10
2019-03-29T06:13:22.616Z,4.20
2019-03-29T06:15:53.507Z,4.10
2019-03-29T06:18:24.351Z,4.30
2019-03-29T06:20:55.195Z,4.40
2019-03-29T06:23:26.036Z,4.40
2019-03-29T06:25:56.837Z,4.50
2019-03-29T06:28:29.949Z,4.60
2019-03-29T06:31:00.569Z,4.70
2019-03-29T06:33:31.566Z,4.90
2019-03-29T06:36:04.288Z,5.10
2019-03-29T06:38:37.386Z,5.10
2019-03-29T06:41:08.170Z,5.30
2019-03-29T06:43:38.966Z,5.40
2019-03-29T06:46:09.785Z,5.40
2019-03-29T06:48:40.694Z,5.60
2019-03-29T06:51:11.614Z,5.70
2019-03-29T06:53:42.423Z,5.80
2019-03-29T06:56:13.322Z,5.90
2019-03-29T06:58:44.198Z,6.00
2019-03-29T07:01:14.998Z,6.10
2019-03-29T07:03:45.844Z,6.30
2019-03-29T07:06:16.651Z,6.50
2019-03-29T07:08:47.446Z,6.70
2019-03-29T07:11:18.493Z,6.80
2019-03-29T07:13:57.402Z,7.00
2019-03-29T07:16:21.911Z,7.10
2019-03-29T07:18:53.711Z,7.20
2019-03-29T07:21:24.528Z,7.40
2019-03-29T07:23:56.948Z,7.50
2019-03-29T07:26:27.752Z,7.60
2019-03-29T07:28:58.595Z,7.70
2019-03-29T07:31:29.506Z,7.80
2019-03-29T07:34:00.347Z,8.00
2019-03-29T07:36:31.266Z,8.30
2019-03-29T07:39:02.051Z,8.60
2019-03-29T07:41:34.154Z,8.90
2019-03-29T07:44:05.984Z,9.40
2019-03-29T07:46:36.810Z,9.70
2019-03-29T07:49:07.616Z,10.10
2019-03-29T07:51:38.452Z,10.50
2019-03-29T07:54:09.242Z,10.80
2019-03-29T07:56:40.089Z,11.00
2019-03-29T07:59:10.874Z,11.20
2019-03-29T08:01:41.714Z,11.40
2019-03-29T08:04:12.637Z,11.50
2019-03-29T08:06:46.442Z,11.70
2019-03-29T08:09:22.140Z,12.20
2019-03-29T08:11:48.694Z,12.30
2019-03-29T08:14:19.513Z,12.50
2019-03-29T08:16:50.518Z,12.40
2019-03-29T08:19:21.338Z,12.80
2019-03-29T08:21:52.285Z,13.00
2019-03-29T08:24:23.141Z,13.00
2019-03-29T08:26:53.930Z,13.30
2019-03-29T08:29:24.753Z,13.40
2019-03-29T08:31:55.831Z,13.40
2019-03-29T08:34:26.649Z,13.50
2019-03-29T08:36:57.529Z,13.70
2019-03-29T08:39:28.648Z,13.90
2019-03-29T08:42:00.701Z,14.10
2019-03-29T08:44:31.754Z,14.10
2019-03-29T08:47:03.151Z,14.60
2019-03-29T08:49:34.052Z,14.70
2019-03-29T08:52:05.277Z,14.70
2019-03-29T08:54:36.201Z,14.60
2019-03-29T08:57:10.477Z,14.90
2019-03-29T08:59:39.553Z,14.90
2019-03-29T09:02:10.512Z,14.80
2019-03-29T09:04:41.486Z,15.00
2019-03-29T09:07:12.350Z,15.20
2019-03-29T09:09:46.208Z,15.30
2019-03-29T09:12:16.166Z,15.40
2019-03-29T09:14:47.078Z,15.40
2019-03-29T09:17:17.995Z,15.30
2019-03-29T09:19:48.953Z,15.50
2019-03-29T09:22:19.789Z,15.50
2019-03-29T09:24:50.590Z,15.50
2019-03-29T09:27:21.403Z,15.50
2019-03-29T09:29:52.234Z,15.10
2019-03-29T09:32:23.055Z,15.60
2019-03-29T09:34:53.906Z,15.70
2019-03-29T09:37:24.838Z,15.90
2019-03-29T09:39:55.758Z,15.80
2019-03-29T09:42:29.531Z,16.00
2019-03-29T09:44:59.369Z,16.10
2019-03-29T09:47:37.016Z,15.90
2019-03-29T09:50:02.987Z,16.10
2019-03-29T09:52:33.870Z,16.40
2019-03-29T09:55:04.890Z,16.40
2019-03-29T09:57:38.143Z,16.40
2019-03-29T10:00:19.141Z,16.30
2019-03-29T10:02:42.841Z,16.70
2019-03-29T10:05:13.790Z,16.70
2019-03-29T10:07:44.703Z,16.80
2019-03-29T10:10:15.783Z,16.80
2019-03-29T10:12:46.602Z,16.80
2019-03-29T10:15:17.482Z,16.60
2019-03-29T10:17:48.398Z,16.70
2019-03-29T10:20:19.341Z,16.80
2019-03-29T10:22:50.166Z,17.00
2019-03-29T10:25:32.471Z,17.10
2019-03-29T10:28:03.275Z,17.00
2019-03-29T10:30:38.114Z,17.30
2019-03-29T10:33:09.098Z,17.20
2019-03-29T10:35:51.391Z,17.00
2019-03-29T10:38:12.845Z,17.10
2019-03-29T10:40:43.766Z,17.20
2019-03-29T10:43:14.763Z,17.00
2019-03-29T10:45:45.575Z,16.90
2019-03-29T10:48:16.488Z,16.60
2019-03-29T10:50:47.442Z,16.50
2019-03-29T10:53:18.336Z,16.70
2019-03-29T10:55:49.298Z,17.10
2019-03-29T10:58:20.191Z,17.00
2019-03-29T11:00:51.170Z,17.20
2019-03-29T11:03:22.043Z,17.20
2019-03-29T11:05:52.854Z,17.20
2019-03-29T11:08:23.727Z,16.90
2019-03-29T11:10:54.598Z,17.00
2019-03-29T11:13:25.644Z,16.80
2019-03-29T11:15:56.430Z,16.90
2019-03-29T11:18:27.262Z,16.90
2019-03-29T11:20:58.060Z,17.00
2019-03-29T11:23:28.879Z,17.00
2019-03-29T11:25:59.683Z,17.00
2019-03-29T11:28:30.570Z,16.90
2019-03-29T11:31:01.485Z,16.80
2019-03-29T11:33:32.410Z,16.90
2019-03-29T11:36:03.359Z,16.70
2019-03-29T11:38:34.363Z,16.50
2019-03-29T11:41:05.263Z,16.70
2019-03-29T11:43:36.175Z,16.70
2019-03-29T11:46:07.467Z,16.60
2019-03-29T11:48:38.298Z,16.40
2019-03-29T11:51:19.169Z,16.50
2019-03-29T11:53:42.859Z,16.40
2019-03-29T11:56:13.746Z,16.50
2019-03-29T11:58:44.622Z,16.30
2019-03-29T12:01:16.581Z,16.30
2019-03-29T12:03:47.458Z,16.30
2019-03-29T12:06:18.345Z,16.30
2019-03-29T12:08:49.274Z,16.30
2019-03-29T12:11:20.179Z,16.30
2019-03-29T12:13:50.955Z,16.20
2019-03-29T12:16:21.919Z,16.10
2019-03-29T12:18:52.730Z,16.10
2019-03-29T12:21:23.597Z,16.20
2019-03-29T12:23:54.411Z,16.10
2019-03-29T12:26:25.231Z,16.00
2019-03-29T12:28:56.035Z,16.10
2019-03-29T12:31:26.832Z,16.10
2019-03-29T12:33:57.910Z,16.10
2019-03-29T12:36:29.023Z,15.90
2019-03-29T12:38:59.854Z,15.90
2019-03-29T12:41:30.718Z,16.00
2019-03-29T12:44:01.598Z,15.80
2019-03-29T12:46:32.607Z,15.80
2019-03-29T12:49:03.610Z,15.80
2019-03-29T12:51:34.487Z,15.80
2019-03-29T12:54:05.503Z,15.90
2019-03-29T12:56:36.306Z,15.90
2019-03-29T12:59:07.138Z,15.90
2019-03-29T13:01:39.889Z,15.90
2019-03-29T13:04:10.519Z,15.90
2019-03-29T13:06:41.320Z,15.90
2019-03-29T13:09:12.203Z,15.80
2019-03-29T13:11:43.098Z,15.80
2019-03-29T13:14:13.898Z,15.90
2019-03-29T13:16:44.887Z,15.80
2019-03-29T13:19:15.758Z,15.90
2019-03-29T13:21:46.738Z,16.00
2019-03-29T13:24:18.662Z,16.20
2019-03-29T13:26:49.494Z,16.20
2019-03-29T13:29:20.390Z,16.10
2019-03-29T13:31:51.306Z,16.00
2019-03-29T13:34:22.214Z,16.00
2019-03-29T13:36:53.127Z,16.00
2019-03-29T13:39:24.094Z,15.90
2019-03-29T13:41:54.902Z,16.00
2019-03-29T13:44:28.254Z,16.00
2019-03-29T13:46:59.262Z,16.10
2019-03-29T13:49:30.387Z,16.10
2019-03-29T13:52:01.523Z,16.20
2019-03-29T13:54:32.342Z,16.30
2019-03-29T13:57:03.170Z,16.20
2019-03-29T13:59:33.946Z,16.20
2019-03-29T14:02:04.923Z,16.10
2019-03-29T14:04:35.800Z,16.20
2019-03-29T14:07:06.607Z,16.20
2019-03-29T14:09:37.586Z,16.10
2019-03-29T14:12:08.512Z,16.10
2019-03-29T14:14:39.339Z,16.00
2019-03-29T14:17:11.171Z,16.10
2019-03-29T14:19:41.971Z,16.10
2019-03-29T14:22:12.850Z,16.20
2019-03-29T14:24:43.651Z,16.20
2019-03-29T14:27:14.606Z,16.10
2019-03-29T14:29:45.398Z,16.10
2019-03-29T14:32:16.188Z,16.10
2019-03-29T14:34:46.990Z,16.10
2019-03-29T14:37:17.843Z,16.00
2019-03-29T14:39:48.766Z,16.00
2019-03-29T14:42:19.574Z,16.00
2019-03-29T14:44:52.825Z,16.20
2019-03-29T14:47:23.090Z,16.20
2019-03-29T14:49:53.975Z,16.10
2019-03-29T14:52:24.787Z,16.10
2019-03-29T14:54:55.576Z,16.10
2019-03-29T14:57:26.466Z,15.90
2019-03-29T14:59:57.439Z,16.00
2019-03-29T15:02:28.254Z,15.90
2019-03-29T15:04:59.040Z,16.00
2019-03-29T15:07:30.035Z,16.10
2019-03-29T15:10:01.375Z,16.00
2019-03-29T15:12:32.192Z,16.10
2019-03-29T15:15:06.589Z,16.10
2019-03-29T15:17:36.240Z,16.00
2019-03-29T15:20:07.527Z,16.00
2019-03-29T15:22:38.315Z,16.10
2019-03-29T15:25:09.352Z,16.10
2019-03-29T15:27:40.264Z,16.00
2019-03-29T15:30:12.300Z,16.10
2019-03-29T15:32:43.335Z,16.00
2019-03-29T15:35:14.288Z,15.90
2019-03-29T15:37:45.108Z,15.90
2019-03-29T15:40:16.112Z,15.90
2019-03-29T15:42:47.001Z,15.90
2019-03-29T15:45:20.709Z,15.80
2019-03-29T15:47:50.552Z,15.80
2019-03-29T15:50:21.591Z,15.90
2019-03-29T15:52:52.512Z,15.90
2019-03-29T15:55:23.424Z,15.90
2019-03-29T15:57:54.223Z,15.90
2019-03-29T16:00:25.132Z,16.00
2019-03-29T16:02:56.024Z,16.00
2019-03-29T16:05:26.832Z,16.00
2019-03-29T16:07:57.648Z,16.00
2019-03-29T16:10:28.532Z,16.00
2019-03-29T16:12:59.391Z,16.20
2019-03-29T16:15:35.155Z,16.40
2019-03-29T16:18:03.344Z,16.60
2019-03-29T16:20:34.304Z,16.80
2019-03-29T16:23:05.382Z,16.90
2019-03-29T16:25:36.282Z,17.00
2019-03-29T16:28:07.065Z,16.90
2019-03-29T16:30:37.993Z,16.90
2019-03-29T16:33:09.760Z,16.70
2019-03-29T16:35:40.622Z,16.60
2019-03-29T16:38:11.480Z,16.50
2019-03-29T16:40:42.450Z,16.30
2019-03-29T16:43:13.277Z,16.20
2019-03-29T16:45:48.077Z,16.00
2019-03-29T16:48:16.903Z,15.90
2019-03-29T16:50:47.896Z,15.70
2019-03-29T16:53:18.706Z,15.60
2019-03-29T16:55:49.564Z,15.60
2019-03-29T16:58:20.360Z,15.50
2019-03-29T17:00:51.161Z,15.40
2019-03-29T17:03:21.976Z,15.40
2019-03-29T17:05:52.848Z,15.30
2019-03-29T17:08:23.708Z,15.20
2019-03-29T17:10:54.513Z,15.10
2019-03-29T17:13:25.332Z,15.00
2019-03-29T17:16:01.919Z,14.90
2019-03-29T17:18:29.668Z,14.80
2019-03-29T17:21:00.981Z,14.70
2019-03-29T17:23:31.965Z,14.60
2019-03-29T17:26:02.868Z,14.50
2019-03-29T17:28:33.739Z,14.50
2019-03-29T17:31:05.704Z,14.40
2019-03-29T17:33:36.516Z,14.40
2019-03-29T17:36:07.318Z,14.20
2019-03-29T17:38:38.203Z,14.10
2019-03-29T17:41:09.011Z,14.00
2019-03-29T17:43:40.041Z,14.00
2019-03-29T17:46:16.542Z,13.90
2019-03-29T17:48:43.452Z,13.90
2019-03-29T17:51:14.243Z,13.90
2019-03-29T17:53:45.051Z,13.80
2019-03-29T17:56:15.888Z,13.70
2019-03-29T17:58:46.693Z,13.50
2019-03-29T18:01:17.526Z,13.40
2019-03-29T18:03:48.611Z,13.30
2019-03-29T18:06:19.519Z,13.20
2019-03-29T18:08:50.347Z,13.10
2019-03-29T18:11:21.131Z,13.00
2019-03-29T18:13:52.023Z,12.90
2019-03-29T18:16:30.445Z,12.80
2019-03-29T18:18:55.428Z,12.70
2019-03-29T18:21:26.228Z,12.60
2019-03-29T18:23:57.181Z,12.50
2019-03-29T18:26:28.147Z,12.40
2019-03-29T18:28:59.072Z,12.30
2019-03-29T18:31:41.404Z,12.20
2019-03-29T18:34:12.367Z,12.10
2019-03-29T18:36:43.896Z,12.00
2019-03-29T18:39:14.863Z,11.90
2019-03-29T18:41:45.755Z,11.80
2019-03-29T18:44:16.552Z,11.70
2019-03-29T18:46:47.456Z,11.60
2019-03-29T18:49:18.232Z,11.60
2019-03-29T18:51:49.084Z,11.50
2019-03-29T18:54:19.913Z,11.40
2019-03-29T18:56:50.803Z,11.40
2019-03-29T18:59:21.692Z,11.30
2019-03-29T19:01:52.596Z,11.20
2019-03-29T19:04:24.564Z,11.20
2019-03-29T19:06:55.455Z,11.10
2019-03-29T19:09:26.432Z,11.10
2019-03-29T19:11:57.425Z,11.00
2019-03-29T19:14:28.331Z,10.90
2019-03-29T19:16:59.891Z,10.90
2019-03-29T19:19:30.924Z,10.90
2019-03-29T19:22:01.759Z,10.80
2019-03-29T19:24:32.620Z,10.80
2019-03-29T19:27:03.456Z,10.70
2019-03-29T19:29:34.387Z,10.60
2019-03-29T19:32:05.283Z,10.60
2019-03-29T19:34:36.192Z,10.50
2019-03-29T19:37:06.999Z,10.40
2019-03-29T19:39:38.313Z,10.40
2019-03-29T19:42:09.279Z,10.40
2019-03-29T19:44:40.212Z,10.30
2019-03-29T19:47:13.725Z,10.40
2019-03-29T19:49:43.681Z,10.50
2019-03-29T19:52:14.669Z,10.60
2019-03-29T19:54:46.796Z,10.70
2019-03-29T19:57:17.790Z,10.70
2019-03-29T19:59:48.865Z,10.70
2019-03-29T20:02:20.749Z,10.60
2019-03-29T20:04:51.789Z,10.60
2019-03-29T20:07:22.824Z,10.60
2019-03-29T20:09:53.787Z,10.50
2019-03-29T20:12:25.237Z,10.40
2019-03-29T20:14:56.188Z,10.30
2019-03-29T20:17:27.972Z,10.40
2019-03-29T20:19:58.917Z,10.20
2019-03-29T20:22:29.745Z,10.20
2019-03-29T20:25:00.683Z,9.90
2019-03-29T20:27:31.574Z,9.70
2019-03-29T20:30:02.374Z,9.70
2019-03-29T20:32:33.483Z,9.70
2019-03-29T20:35:04.555Z,9.70
2019-03-29T20:37:35.376Z,9.60
2019-03-29T20:40:07.929Z,9.50
2019-03-29T20:42:38.842Z,9.40
2019-03-29T20:45:10.081Z,9.30
2019-03-29T20:47:42.375Z,9.30
2019-03-29T20:50:13.833Z,9.30
2019-03-29T20:52:44.842Z,9.30
2019-03-29T20:55:17.159Z,9.30
2019-03-29T20:57:48.081Z,9.30
2019-03-29T21:00:19.779Z,9.20
2019-03-29T21:02:50.713Z,9.10
2019-03-29T21:05:29.117Z,9.10
2019-03-29T21:08:12.512Z,9.10
2019-03-29T21:10:55.496Z,9.10
2019-03-29T21:13:17.709Z,9.10
2019-03-29T21:15:48.585Z,9.10
2019-03-29T21:18:19.493Z,9.00
2019-03-29T21:20:50.380Z,9.00
2019-03-29T21:23:22.173Z,8.80
2019-03-29T21:25:52.977Z,8.70
2019-03-29T21:28:24.035Z,8.70
2019-03-29T21:30:55.031Z,8.60
2019-03-29T21:34:03.708Z,8.60
2019-03-29T21:40:24.791Z,8.60
2019-03-29T21:42:57.289Z,8.60
2019-03-29T21:45:29.294Z,8.70
2019-03-29T21:48:09.954Z,8.60
2019-03-29T21:50:32.877Z,8.50
2019-03-29T21:53:04.223Z,8.50
2019-03-29T21:55:35.276Z,8.50
2019-03-29T21:58:06.125Z,8.50
2019-03-29T22:00:37.037Z,8.60
2019-03-29T22:03:08.069Z,8.70
2019-03-29T22:05:38.960Z,8.70
2019-03-29T22:08:09.962Z,8.70
2019-03-29T22:10:40.829Z,8.70
2019-03-29T22:13:11.666Z,8.70
2019-03-29T22:15:42.585Z,8.60
2019-03-29T22:18:13.609Z,8.60
2019-03-29T22:20:45.610Z,8.50
2019-03-29T22:23:16.485Z,8.40
2019-03-29T22:25:47.461Z,8.20
2019-03-29T22:28:18.269Z,8.20
2019-03-29T22:30:49.178Z,8.00
2019-03-29T22:33:20.073Z,7.90
2019-03-29T22:35:51.034Z,7.80
2019-03-29T22:38:21.941Z,7.80
2019-03-29T22:40:52.805Z,7.80
2019-03-29T22:43:23.769Z,7.80
2019-03-29T22:45:54.630Z,7.70
2019-03-29T22:48:25.437Z,7.70
2019-03-29T22:50:56.237Z,7.70
2019-03-29T22:53:27.209Z,7.70
2019-03-29T22:55:58.202Z,7.70
2019-03-29T22:58:29.930Z,7.70
2019-03-29T23:01:03.173Z,7.60
2019-03-29T23:03:34.162Z,7.70
2019-03-29T23:06:05.181Z,7.60
2019-03-29T23:08:36.018Z,7.60
2019-03-29T23:11:06.893Z,7.50
2019-03-29T23:13:37.758Z,7.50
2019-03-29T23:16:08.663Z,7.50
2019-03-29T23:18:39.695Z,7.40
2019-03-29T23:21:10.614Z,7.40
2019-03-29T23:23:41.421Z,7.30
2019-03-29T23:26:12.258Z,7.30
2019-03-29T23:28:43.223Z,7.30
2019-03-29T23:31:14.061Z,7.20
2019-03-29T23:33:44.911Z,7.20
2019-03-29T23:36:15.716Z,7.20
2019-03-29T23:38:46.519Z,7.20
2019-03-29T23:41:17.316Z,7.20
2019-03-29T23:43:48.148Z,7.20
2019-03-29T23:46:18.986Z,7.30
2019-03-29T23:48:49.796Z,7.20
2019-03-29T23:51:20.576Z,7.30
2019-03-29T23:53:51.414Z,7.30
2019-03-29T23:56:22.375Z,7.30
2019-03-29T23:58:53.284Z,7.30
